createdAt,value
2019-05-19T00:00:42.220Z,0
2019-05-19T00:01:42.282Z,0
2019-05-19T00:02:45.525Z,0
2019-05-19T00:03:42.195Z,0
2019-05-19T00:04:42.230Z,0
2019-05-19T00:05:42.181Z,0
2019-05-19T00:06:41.932Z,0
2019-05-19T00:07:42.209Z,0
2019-05-19T00:08:42.161Z,0
2019-05-19T00:09:42.152Z,0
2019-05-19T00:10:41.904Z,0
2019-05-19T00:11:42.133Z,0
2019-05-19T00:12:42.143Z,0
2019-05-19T00:13:42.119Z,0
2019-05-19T00:14:41.877Z,0
2019-05-19T00:15:42.108Z,0
2019-05-19T00:16:42.092Z,0
2019-05-19T00:17:42.118Z,0
2019-05-19T00:18:42.078Z,0
2019-05-19T00:19:42.070Z,0
2019-05-19T00:20:42.062Z,0
2019-05-19T00:21:56.728Z,0
2019-05-19T00:22:42.056Z,0
2019-05-19T00:23:42.039Z,0
2019-05-19T00:24:42.031Z,0
2019-05-19T00:25:42.015Z,0
2019-05-19T00:26:42.031Z,0
2019-05-19T00:27:42.023Z,0
2019-05-19T00:28:42.035Z,0
2019-05-19T00:29:41.792Z,0
2019-05-19T00:30:41.993Z,0
2019-05-19T00:31:41.984Z,0
2019-05-19T00:32:41.966Z,0
2019-05-19T00:33:41.962Z,0
2019-05-19T00:34:41.954Z,0
2019-05-19T00:35:42.042Z,0
2019-05-19T00:36:47.951Z,0
2019-05-19T00:37:41.930Z,0
2019-05-19T00:38:41.917Z,0
2019-05-19T00:39:41.959Z,0
2019-05-19T00:40:41.658Z,0
2019-05-19T00:41:41.658Z,0
2019-05-19T00:42:41.911Z,0
2019-05-19T00:43:41.952Z,0
2019-05-19T00:44:41.872Z,0
2019-05-19T00:45:41.881Z,0
2019-05-19T00:46:41.865Z,0
2019-05-19T00:47:41.852Z,0
2019-05-19T00:48:41.843Z,0
2019-05-19T00:49:50.824Z,0
2019-05-19T00:50:41.828Z,0
2019-05-19T00:51:48.086Z,0
2019-05-19T00:52:41.825Z,0
2019-05-19T00:53:41.798Z,0
2019-05-19T00:54:41.798Z,0
2019-05-19T00:55:41.850Z,0
2019-05-19T00:56:41.779Z,0
2019-05-19T00:57:41.793Z,0
2019-05-19T00:58:41.763Z,0
2019-05-19T00:59:48.645Z,0
2019-05-19T01:00:42.175Z,0
2019-05-19T01:01:41.738Z,0
2019-05-19T01:02:41.733Z,0
2019-05-19T01:03:41.711Z,0
2019-05-19T01:04:41.711Z,0
2019-05-19T01:05:41.699Z,0
2019-05-19T01:06:41.689Z,0
2019-05-19T01:07:41.699Z,0
2019-05-19T01:08:41.676Z,0
2019-05-19T01:09:41.686Z,0
2019-05-19T01:10:41.656Z,0
2019-05-19T01:11:41.703Z,0
2019-05-19T01:12:41.661Z,0
2019-05-19T01:13:41.395Z,0
2019-05-19T01:14:41.624Z,0
2019-05-19T01:15:41.638Z,0
2019-05-19T01:16:41.613Z,0
2019-05-19T01:17:41.135Z,0
2019-05-19T01:18:41.618Z,0
2019-05-19T01:19:53.802Z,0
2019-05-19T01:20:41.575Z,0
2019-05-19T01:21:41.569Z,0
2019-05-19T01:22:41.575Z,0
2019-05-19T01:23:41.549Z,0
2019-05-19T01:24:41.558Z,0
2019-05-19T01:25:41.572Z,0
2019-05-19T01:26:41.320Z,0
2019-05-19T01:27:41.517Z,0
2019-05-19T01:28:41.509Z,0
2019-05-19T01:29:41.503Z,0
2019-05-19T01:30:41.568Z,0
2019-05-19T01:31:41.507Z,0
2019-05-19T01:32:41.501Z,0
2019-05-19T01:33:41.480Z,0
2019-05-19T01:34:41.462Z,0
2019-05-19T01:35:42.724Z,0
2019-05-19T01:36:41.465Z,0
2019-05-19T01:37:41.632Z,0
2019-05-19T01:38:41.427Z,0
2019-05-19T01:39:41.461Z,0
2019-05-19T01:40:41.408Z,0
2019-05-19T01:41:41.600Z,0
2019-05-19T01:42:41.400Z,0
2019-05-19T01:43:42.862Z,0
2019-05-19T01:44:41.151Z,0
2019-05-19T01:45:41.373Z,0
2019-05-19T01:46:41.363Z,0
2019-05-19T01:47:41.365Z,0
2019-05-19T01:48:41.356Z,0
2019-05-19T01:49:41.094Z,0
2019-05-19T01:50:41.337Z,0
2019-05-19T01:51:41.325Z,0
2019-05-19T01:52:41.312Z,0
2019-05-19T01:53:41.320Z,0
2019-05-19T01:54:41.309Z,0
2019-05-19T01:55:41.289Z,0
2019-05-19T01:56:41.036Z,0
2019-05-19T01:57:41.287Z,0
2019-05-19T01:58:41.270Z,0
2019-05-19T01:59:41.258Z,0
2019-05-19T02:00:41.245Z,0
2019-05-19T02:01:41.285Z,0
2019-05-19T02:02:53.957Z,0
2019-05-19T02:03:41.216Z,0
2019-05-19T02:04:41.232Z,0
2019-05-19T02:05:41.210Z,0
2019-05-19T02:06:41.198Z,0
2019-05-19T02:07:41.090Z,0
2019-05-19T02:08:41.182Z,0
2019-05-19T02:09:41.193Z,0
2019-05-19T02:10:41.156Z,0
2019-05-19T02:11:41.227Z,0
2019-05-19T02:12:41.149Z,0
2019-05-19T02:13:41.138Z,0
2019-05-19T02:14:41.128Z,0
2019-05-19T02:15:41.119Z,0
2019-05-19T02:16:41.121Z,0
2019-05-19T02:17:41.107Z,0
2019-05-19T02:18:41.111Z,0
2019-05-19T02:19:41.083Z,0
2019-05-19T02:20:43.007Z,0
2019-05-19T02:21:41.065Z,0
2019-05-19T02:22:41.066Z,0
2019-05-19T02:23:53.804Z,0
2019-05-19T02:24:41.051Z,0
2019-05-19T02:25:41.040Z,0
2019-05-19T02:26:41.040Z,0
2019-05-19T02:27:41.012Z,0
2019-05-19T02:28:40.759Z,0
2019-05-19T02:29:40.756Z,0
2019-05-19T02:30:41.024Z,0
2019-05-19T02:31:41.038Z,0
2019-05-19T02:32:41.007Z,0
2019-05-19T02:33:45.083Z,0
2019-05-19T02:34:40.975Z,0
2019-05-19T02:35:40.968Z,0
2019-05-19T02:36:40.949Z,0
2019-05-19T02:37:40.946Z,0
2019-05-19T02:38:40.925Z,0
2019-05-19T02:39:40.941Z,0
2019-05-19T02:41:40.971Z,0
2019-05-19T02:42:40.898Z,0
2019-05-19T02:43:40.890Z,0
2019-05-19T02:44:40.966Z,0
2019-05-19T02:45:40.632Z,0
2019-05-19T02:46:40.890Z,0
2019-05-19T02:47:40.853Z,0
2019-05-19T02:48:40.592Z,0
2019-05-19T02:49:40.832Z,0
2019-05-19T02:50:58.627Z,0
2019-05-19T02:51:40.584Z,0
2019-05-19T02:52:40.625Z,0
2019-05-19T02:53:40.808Z,0
2019-05-19T02:54:40.785Z,5
2019-05-19T02:55:40.778Z,5
2019-05-19T02:56:40.774Z,5
2019-05-19T02:57:40.769Z,5
2019-05-19T02:58:40.779Z,10
2019-05-19T02:59:40.767Z,10
2019-05-19T03:00:40.746Z,10
2019-05-19T03:01:40.742Z,10
2019-05-19T03:02:40.737Z,15
2019-05-19T03:03:40.724Z,15
2019-05-19T03:04:40.760Z,15
2019-05-19T03:05:40.699Z,15
2019-05-19T03:06:40.690Z,15
2019-05-19T03:07:40.719Z,20
2019-05-19T03:08:40.667Z,20
2019-05-19T03:09:40.671Z,20
2019-05-19T03:10:40.682Z,20
2019-05-19T03:11:40.646Z,25
2019-05-19T03:12:40.632Z,25
2019-05-19T03:13:40.665Z,25
2019-05-19T03:14:40.655Z,25
2019-05-19T03:15:40.706Z,25
2019-05-19T03:16:40.620Z,30
2019-05-19T03:17:40.612Z,30
2019-05-19T03:18:40.345Z,30
2019-05-19T03:19:40.610Z,35
2019-05-19T03:20:40.581Z,40
2019-05-19T03:21:40.567Z,40
2019-05-19T03:22:40.585Z,35
2019-05-19T03:23:40.544Z,40
2019-05-19T03:24:40.560Z,40
2019-05-19T03:25:43.760Z,45
2019-05-19T03:26:40.544Z,55
2019-05-19T03:27:40.284Z,50
2019-05-19T03:28:40.526Z,55
2019-05-19T03:29:40.503Z,60
2019-05-19T03:30:40.535Z,60
2019-05-19T03:31:40.589Z,65
2019-05-19T03:32:40.512Z,70
2019-05-19T03:33:40.510Z,70
2019-05-19T03:34:40.418Z,70
2019-05-19T03:35:40.492Z,75
2019-05-19T03:36:40.451Z,75
2019-05-19T03:37:40.450Z,80
2019-05-19T03:38:40.430Z,85
2019-05-19T03:39:40.429Z,90
2019-05-19T03:40:40.183Z,95
2019-05-19T03:41:40.387Z,95
2019-05-19T03:42:40.407Z,105
2019-05-19T03:43:40.392Z,115
2019-05-19T03:44:40.392Z,120
2019-05-19T03:45:40.371Z,120
2019-05-19T03:46:40.414Z,125
2019-05-19T03:47:40.352Z,125
2019-05-19T03:48:40.120Z,120
2019-05-19T03:49:40.392Z,125
2019-05-19T03:50:40.327Z,135
2019-05-19T03:51:41.484Z,145
2019-05-19T03:52:40.312Z,140
2019-05-19T03:53:40.324Z,135
2019-05-19T03:54:40.297Z,150
2019-05-19T03:55:40.298Z,150
2019-05-19T03:56:40.283Z,155
2019-05-19T03:57:40.291Z,155
2019-05-19T03:58:40.050Z,155
2019-05-19T03:59:40.257Z,160
2019-05-19T04:00:40.293Z,175
2019-05-19T04:01:40.247Z,180
2019-05-19T04:02:40.269Z,195
2019-05-19T04:03:40.255Z,215
2019-05-19T04:04:39.993Z,225
2019-05-19T04:05:40.304Z,225
2019-05-19T04:06:40.250Z,240
2019-05-19T04:07:40.264Z,245
2019-05-19T04:08:40.227Z,240
2019-05-19T04:09:40.207Z,245
2019-05-19T04:10:40.200Z,250
2019-05-19T04:11:40.202Z,250
2019-05-19T04:12:39.942Z,255
2019-05-19T04:13:40.190Z,260
2019-05-19T04:14:39.946Z,280
2019-05-19T04:15:40.191Z,290
2019-05-19T04:16:40.175Z,295
2019-05-19T04:17:40.165Z,310
2019-05-19T04:18:40.218Z,305
2019-05-19T04:19:40.184Z,320
2019-05-19T04:20:40.172Z,320
2019-05-19T04:21:57.810Z,310
2019-05-19T04:22:40.193Z,305
2019-05-19T04:23:40.179Z,270
2019-05-19T04:24:40.138Z,250
2019-05-19T04:26:40.149Z,260
2019-05-19T04:27:40.151Z,290
2019-05-19T04:28:41.809Z,320
2019-05-19T04:29:44.038Z,330
2019-05-19T04:30:40.140Z,355
2019-05-19T04:31:39.927Z,350
2019-05-19T04:32:40.234Z,295
2019-05-19T04:33:40.150Z,310
2019-05-19T04:34:40.141Z,305
2019-05-19T04:35:40.149Z,305
2019-05-19T04:36:40.120Z,285
2019-05-19T04:37:40.152Z,280
2019-05-19T04:38:40.195Z,275
2019-05-19T04:39:40.161Z,280
2019-05-19T04:40:40.141Z,275
2019-05-19T04:41:42.617Z,285
2019-05-19T04:42:40.130Z,295
2019-05-19T04:43:40.112Z,305
2019-05-19T04:44:40.146Z,335
2019-05-19T04:45:39.892Z,400
2019-05-19T04:46:40.141Z,455
2019-05-19T04:47:40.141Z,465
2019-05-19T04:48:40.107Z,505
2019-05-19T04:49:40.101Z,475
2019-05-19T04:50:40.119Z,470
2019-05-19T04:51:40.119Z,380
2019-05-19T04:52:40.103Z,430
2019-05-19T04:53:40.115Z,440
2019-05-19T04:54:40.094Z,450
2019-05-19T04:55:40.175Z,450
2019-05-19T04:56:40.115Z,420
2019-05-19T04:57:40.107Z,385
2019-05-19T04:58:40.103Z,350
2019-05-19T04:59:40.089Z,350
2019-05-19T05:00:40.106Z,330
2019-05-19T05:01:40.099Z,330
2019-05-19T05:02:40.109Z,325
2019-05-19T05:03:40.100Z,330
2019-05-19T05:04:40.097Z,330
2019-05-19T05:05:40.111Z,365
2019-05-19T05:06:40.115Z,415
2019-05-19T05:07:40.125Z,475
2019-05-19T05:08:40.461Z,410
2019-05-19T05:09:40.119Z,365
2019-05-19T05:10:40.094Z,330
2019-05-19T05:11:40.090Z,340
2019-05-19T05:12:40.093Z,320
2019-05-19T05:13:40.105Z,340
2019-05-19T05:14:39.858Z,410
2019-05-19T05:15:40.099Z,425
2019-05-19T05:16:40.101Z,450
2019-05-19T05:17:40.159Z,470
2019-05-19T05:18:40.090Z,555
2019-05-19T05:19:40.088Z,620
2019-05-19T05:20:40.092Z,620
2019-05-19T05:21:40.084Z,535
2019-05-19T05:22:40.087Z,585
2019-05-19T05:23:40.080Z,630
2019-05-19T05:24:41.362Z,610
2019-05-19T05:25:40.130Z,570
2019-05-19T05:26:40.101Z,575
2019-05-19T05:27:40.116Z,640
2019-05-19T05:28:40.096Z,725
2019-05-19T05:29:40.107Z,775
2019-05-19T05:30:40.136Z,780
2019-05-19T05:31:40.089Z,800
2019-05-19T05:32:40.087Z,815
2019-05-19T05:33:40.110Z,810
2019-05-19T05:34:40.100Z,845
2019-05-19T05:35:40.133Z,860
2019-05-19T05:36:40.101Z,900
2019-05-19T05:37:40.100Z,925
2019-05-19T05:38:40.097Z,930
2019-05-19T05:39:40.116Z,935
2019-05-19T05:40:40.108Z,940
2019-05-19T05:41:40.114Z,940
2019-05-19T05:42:41.540Z,940
2019-05-19T05:43:40.124Z,970
2019-05-19T05:44:40.136Z,995
2019-05-19T05:45:40.170Z,1020
2019-05-19T05:46:40.138Z,1000
2019-05-19T05:47:40.147Z,1050
2019-05-19T05:48:40.160Z,1055
2019-05-19T05:49:39.928Z,1075
2019-05-19T05:50:40.173Z,1070
2019-05-19T05:51:40.178Z,1020
2019-05-19T05:52:48.233Z,835
2019-05-19T05:53:40.185Z,825
2019-05-19T05:54:40.223Z,785
2019-05-19T05:55:40.212Z,675
2019-05-19T05:56:39.980Z,535
2019-05-19T05:57:40.236Z,505
2019-05-19T05:58:40.240Z,675
2019-05-19T05:59:40.243Z,850
2019-05-19T06:00:40.258Z,980
2019-05-19T06:01:40.263Z,950
2019-05-19T06:02:40.260Z,1085
2019-05-19T06:03:40.267Z,1075
2019-05-19T06:04:40.032Z,1065
2019-05-19T06:05:40.304Z,1155
2019-05-19T06:06:40.289Z,1165
2019-05-19T06:07:42.868Z,1190
2019-05-19T06:08:40.316Z,1205
2019-05-19T06:09:40.311Z,1230
2019-05-19T06:10:40.331Z,1240
2019-05-19T06:11:40.336Z,1240
2019-05-19T06:12:40.370Z,1245
2019-05-19T06:13:40.347Z,1260
2019-05-19T06:14:40.387Z,1275
2019-05-19T06:15:40.422Z,1300
2019-05-19T06:16:40.380Z,1320
2019-05-19T06:17:40.436Z,1335
2019-05-19T06:18:40.399Z,1345
2019-05-19T06:19:40.429Z,1350
2019-05-19T06:20:40.425Z,1355
2019-05-19T06:21:40.439Z,1365
2019-05-19T06:22:57.413Z,1370
2019-05-19T06:23:41.932Z,1375
2019-05-19T06:24:40.485Z,1380
2019-05-19T06:25:41.088Z,1380
2019-05-19T06:26:40.257Z,1370
2019-05-19T06:27:40.497Z,1370
2019-05-19T06:28:40.518Z,1370
2019-05-19T06:29:40.538Z,1385
2019-05-19T06:30:40.566Z,1400
2019-05-19T06:31:40.593Z,1420
2019-05-19T06:32:40.350Z,1435
2019-05-19T06:33:40.577Z,1435
2019-05-19T06:34:40.594Z,1435
2019-05-19T06:35:40.604Z,1440
2019-05-19T06:36:40.621Z,1445
2019-05-19T06:37:40.633Z,1465
2019-05-19T06:38:40.228Z,1490
2019-05-19T06:39:40.660Z,1505
2019-05-19T06:40:40.736Z,1520
2019-05-19T06:41:40.685Z,1550
2019-05-19T06:42:40.711Z,1565
2019-05-19T06:43:40.722Z,1580
2019-05-19T06:44:40.721Z,1580
2019-05-19T06:45:40.610Z,1600
2019-05-19T06:46:40.772Z,1600
2019-05-19T06:47:40.558Z,1600
2019-05-19T06:48:40.810Z,1595
2019-05-19T06:49:40.563Z,1585
2019-05-19T06:50:45.295Z,1590
2019-05-19T06:51:40.825Z,1615
2019-05-19T06:52:40.602Z,1655
2019-05-19T06:53:40.887Z,1675
2019-05-19T06:54:40.392Z,1695
2019-05-19T06:55:41.105Z,1715
2019-05-19T06:56:40.932Z,1700
2019-05-19T06:57:40.934Z,1720
2019-05-19T06:58:40.946Z,1730
2019-05-19T06:59:40.942Z,1720
2019-05-19T07:00:40.954Z,1710
2019-05-19T07:01:40.983Z,1740
2019-05-19T07:02:41.000Z,1710
2019-05-19T07:03:41.006Z,1745
2019-05-19T07:04:41.060Z,1770
2019-05-19T07:05:41.058Z,1805
2019-05-19T07:06:43.895Z,1830
2019-05-19T07:07:41.055Z,1840
2019-05-19T07:08:40.844Z,1860
2019-05-19T07:09:41.236Z,1860
2019-05-19T07:10:41.108Z,1870
2019-05-19T07:11:40.908Z,1870
2019-05-19T07:12:41.129Z,1890
2019-05-19T07:13:41.158Z,1900
2019-05-19T07:14:41.197Z,1845
2019-05-19T07:15:41.194Z,1795
2019-05-19T07:16:41.204Z,1795
2019-05-19T07:17:41.013Z,1785
2019-05-19T07:18:41.237Z,1790
2019-05-19T07:19:41.251Z,1800
2019-05-19T07:20:41.257Z,1845
2019-05-19T07:21:41.302Z,1890
2019-05-19T07:22:44.375Z,1895
2019-05-19T07:23:41.338Z,1895
2019-05-19T07:24:41.318Z,1895
2019-05-19T07:25:41.344Z,1860
2019-05-19T07:26:41.365Z,1870
2019-05-19T07:27:41.386Z,1880
2019-05-19T07:28:41.388Z,1270
2019-05-19T07:29:41.414Z,1485
2019-05-19T07:30:41.418Z,1395
2019-05-19T07:31:41.205Z,1645
2019-05-19T07:32:41.465Z,1800
2019-05-19T07:33:41.457Z,2070
2019-05-19T07:34:41.492Z,1115
2019-05-19T07:35:41.517Z,1850
2019-05-19T07:36:41.538Z,1455
2019-05-19T07:37:41.533Z,1850
2019-05-19T07:38:41.544Z,1290
2019-05-19T07:39:41.574Z,1020
2019-05-19T07:40:41.578Z,965
2019-05-19T07:41:41.612Z,1120
2019-05-19T07:42:41.634Z,1155
2019-05-19T07:43:41.618Z,1605
2019-05-19T07:44:44.665Z,1600
2019-05-19T07:45:41.637Z,1855
2019-05-19T07:46:41.412Z,1880
2019-05-19T07:47:41.663Z,1230
2019-05-19T07:48:41.684Z,965
2019-05-19T07:49:41.713Z,1030
2019-05-19T07:50:45.176Z,895
2019-05-19T07:51:41.717Z,1020
2019-05-19T07:52:41.948Z,975
2019-05-19T07:53:51.618Z,940
2019-05-19T07:54:41.760Z,985
2019-05-19T07:55:41.772Z,985
2019-05-19T07:56:41.785Z,1075
2019-05-19T07:57:41.805Z,1400
2019-05-19T07:58:41.865Z,925
2019-05-19T07:59:41.816Z,835
2019-05-19T08:00:41.696Z,810
2019-05-19T08:01:41.850Z,875
2019-05-19T08:02:41.981Z,790
2019-05-19T08:03:42.062Z,800
2019-05-19T08:04:43.967Z,810
2019-05-19T08:05:41.971Z,725
2019-05-19T08:06:41.671Z,655
2019-05-19T08:07:41.798Z,605
2019-05-19T08:08:42.111Z,635
2019-05-19T08:09:41.972Z,2020
2019-05-19T08:11:41.944Z,865
2019-05-19T08:12:44.446Z,2265
2019-05-19T08:13:41.964Z,1815
2019-05-19T08:14:43.184Z,1650
2019-05-19T08:15:42.028Z,1695
2019-05-19T08:16:41.997Z,1685
2019-05-19T08:18:03.115Z,1775
2019-05-19T08:18:42.050Z,1730
2019-05-19T08:19:42.026Z,1680
2019-05-19T08:22:42.056Z,1775
2019-05-19T08:23:41.825Z,1815
2019-05-19T08:24:42.078Z,1735
2019-05-19T08:25:42.111Z,1775
2019-05-19T08:26:42.091Z,1790
2019-05-19T08:27:42.125Z,1830
2019-05-19T08:28:42.107Z,1765
2019-05-19T08:29:42.137Z,1870
2019-05-19T08:30:43.559Z,1870
2019-05-19T08:31:42.162Z,1795
2019-05-19T08:32:42.190Z,1815
2019-05-19T08:33:42.267Z,1835
2019-05-19T08:34:42.166Z,1855
2019-05-19T08:35:42.251Z,1855
2019-05-19T08:36:41.940Z,1740
2019-05-19T08:37:42.222Z,1700
2019-05-19T08:38:42.245Z,1815
2019-05-19T08:39:42.232Z,1815
2019-05-19T08:40:42.352Z,1780
2019-05-19T08:41:42.236Z,1760
2019-05-19T08:42:42.255Z,1740
2019-05-19T08:43:42.288Z,1715
2019-05-19T08:44:42.285Z,1395
2019-05-19T08:45:42.284Z,765
2019-05-19T08:46:42.308Z,465
2019-05-19T08:47:42.336Z,440
2019-05-19T08:48:42.345Z,435
2019-05-19T08:49:42.364Z,425
2019-05-19T08:50:42.394Z,425
2019-05-19T08:51:42.403Z,425
2019-05-19T08:52:42.352Z,420
2019-05-19T08:53:42.354Z,415
2019-05-19T08:54:43.635Z,415
2019-05-19T08:55:42.387Z,415
2019-05-19T08:56:44.862Z,415
2019-05-19T08:57:42.444Z,410
2019-05-19T08:58:42.407Z,405
2019-05-19T08:59:42.454Z,400
2019-05-19T09:00:47.510Z,395
2019-05-19T09:01:42.410Z,395
2019-05-19T09:02:42.439Z,390
2019-05-19T09:03:43.692Z,390
2019-05-19T09:04:42.439Z,395
2019-05-19T09:05:42.437Z,390
2019-05-19T09:06:42.191Z,390
2019-05-19T09:07:42.447Z,395
2019-05-19T09:08:42.487Z,395
2019-05-19T09:09:42.484Z,390
2019-05-19T09:10:42.224Z,390
2019-05-19T09:11:42.573Z,385
2019-05-19T09:12:42.591Z,380
2019-05-19T09:13:42.481Z,380
2019-05-19T09:14:42.465Z,380
2019-05-19T09:15:42.453Z,380
2019-05-19T09:16:42.472Z,380
2019-05-19T09:17:42.474Z,380
2019-05-19T09:18:42.457Z,380
2019-05-19T09:19:42.467Z,375
2019-05-19T09:20:42.468Z,375
2019-05-19T09:21:42.525Z,380
2019-05-19T09:22:42.477Z,375
2019-05-19T09:23:42.467Z,375
2019-05-19T09:24:44.415Z,380
2019-05-19T09:25:42.465Z,380
2019-05-19T09:26:42.527Z,380
2019-05-19T09:27:42.512Z,385
2019-05-19T09:28:42.522Z,385
2019-05-19T09:29:42.237Z,385
2019-05-19T09:30:42.479Z,380
2019-05-19T09:31:46.045Z,380
2019-05-19T09:32:42.484Z,375
2019-05-19T09:33:44.167Z,375
2019-05-19T09:34:44.163Z,370
2019-05-19T09:35:42.479Z,370
2019-05-19T09:36:42.474Z,370
2019-05-19T09:37:42.476Z,370
2019-05-19T09:38:42.563Z,365
2019-05-19T09:39:42.479Z,375
2019-05-19T09:40:42.486Z,375
2019-05-19T09:41:42.477Z,380
2019-05-19T09:42:42.272Z,390
2019-05-19T09:43:42.482Z,400
2019-05-19T09:44:42.482Z,405
2019-05-19T09:45:42.492Z,395
2019-05-19T09:46:42.482Z,390
2019-05-19T09:47:42.674Z,370
2019-05-19T09:48:42.553Z,360
2019-05-19T09:49:42.497Z,355
2019-05-19T09:50:42.491Z,360
2019-05-19T09:51:42.492Z,360
2019-05-19T09:52:42.523Z,345
2019-05-19T09:53:42.513Z,340
2019-05-19T09:54:53.629Z,335
2019-05-19T09:55:42.485Z,335
2019-05-19T09:56:42.258Z,345
2019-05-19T09:57:42.255Z,355
2019-05-19T09:58:42.496Z,345
2019-05-19T09:59:42.505Z,340
2019-05-19T10:00:42.499Z,330
2019-05-19T10:01:42.493Z,325
2019-05-19T10:02:42.529Z,330
2019-05-19T10:03:42.529Z,335
2019-05-19T10:05:42.498Z,355
2019-05-19T10:06:42.366Z,340
2019-05-19T10:07:42.508Z,325
2019-05-19T10:08:42.496Z,310
2019-05-19T10:09:42.504Z,310
2019-05-19T10:10:42.501Z,310
2019-05-19T10:11:42.626Z,310
2019-05-19T10:12:42.496Z,315
2019-05-19T10:13:44.931Z,315
2019-05-19T10:14:42.499Z,315
2019-05-19T10:15:42.497Z,305
2019-05-19T10:16:42.504Z,320
2019-05-19T10:17:42.518Z,330
2019-05-19T10:18:42.565Z,345
2019-05-19T10:19:42.296Z,360
2019-05-19T10:20:42.506Z,385
2019-05-19T10:21:42.507Z,415
2019-05-19T10:22:43.036Z,445
2019-05-19T10:23:42.512Z,445
2019-05-19T10:24:57.808Z,440
2019-05-19T10:25:42.508Z,455
2019-05-19T10:26:42.532Z,460
2019-05-19T10:27:42.523Z,460
2019-05-19T10:28:42.527Z,470
2019-05-19T10:29:42.564Z,485
2019-05-19T10:30:42.515Z,510
2019-05-19T10:31:42.548Z,540
2019-05-19T10:32:42.541Z,550
2019-05-19T10:33:42.523Z,550
2019-05-19T10:34:42.539Z,545
2019-05-19T10:35:42.542Z,540
2019-05-19T10:36:42.539Z,550
2019-05-19T10:37:42.531Z,570
2019-05-19T10:38:42.537Z,570
2019-05-19T10:39:42.553Z,565
2019-05-19T10:40:42.536Z,565
2019-05-19T10:41:42.591Z,595
2019-05-19T10:42:42.570Z,590
2019-05-19T10:43:42.547Z,570
2019-05-19T10:44:42.587Z,545
2019-05-19T10:45:42.308Z,530
2019-05-19T10:46:42.552Z,515
2019-05-19T10:47:42.584Z,495
2019-05-19T10:48:42.591Z,485
2019-05-19T10:49:45.416Z,480
2019-05-19T10:50:42.563Z,465
2019-05-19T10:51:42.367Z,445
2019-05-19T10:52:42.614Z,430
2019-05-19T10:53:42.570Z,420
2019-05-19T10:54:42.675Z,420
2019-05-19T10:55:46.212Z,430
2019-05-19T10:56:42.632Z,445
2019-05-19T10:57:42.626Z,450
2019-05-19T10:58:42.584Z,435
2019-05-19T10:59:42.610Z,450
2019-05-19T11:00:42.640Z,445
2019-05-19T11:01:42.606Z,440
2019-05-19T11:02:42.609Z,415
2019-05-19T11:03:42.612Z,425
2019-05-19T11:04:42.613Z,450
2019-05-19T11:05:42.613Z,455
2019-05-19T11:06:42.376Z,395
2019-05-19T11:07:42.621Z,380
2019-05-19T11:08:42.722Z,365
2019-05-19T11:09:42.625Z,335
2019-05-19T11:10:42.394Z,295
2019-05-19T11:11:42.634Z,275
2019-05-19T11:12:42.650Z,290
2019-05-19T11:13:42.654Z,320
2019-05-19T11:14:42.652Z,360
2019-05-19T11:15:42.709Z,375
2019-05-19T11:16:42.717Z,390
2019-05-19T11:17:42.709Z,420
2019-05-19T11:18:42.654Z,430
2019-05-19T11:19:42.490Z,430
2019-05-19T11:20:42.714Z,425
2019-05-19T11:21:42.657Z,430
2019-05-19T11:22:42.678Z,460
2019-05-19T11:23:42.676Z,480
2019-05-19T11:24:42.691Z,485
2019-05-19T11:25:58.003Z,470
2019-05-19T11:26:42.672Z,460
2019-05-19T11:27:42.680Z,435
2019-05-19T11:28:42.682Z,420
2019-05-19T11:29:42.675Z,410
2019-05-19T11:30:42.539Z,405
2019-05-19T11:31:42.688Z,390
2019-05-19T11:32:42.702Z,380
2019-05-19T11:33:42.722Z,375
2019-05-19T11:34:42.706Z,370
2019-05-19T11:35:42.732Z,345
2019-05-19T11:36:42.717Z,340
2019-05-19T11:37:42.701Z,335
2019-05-19T11:38:42.723Z,335
2019-05-19T11:39:42.704Z,330
2019-05-19T11:40:42.719Z,315
2019-05-19T11:41:42.717Z,305
2019-05-19T11:42:42.735Z,300
2019-05-19T11:43:42.714Z,310
2019-05-19T11:44:42.810Z,300
2019-05-19T11:45:42.721Z,295
2019-05-19T11:46:42.843Z,310
2019-05-19T11:47:42.732Z,335
2019-05-19T11:48:42.784Z,340
2019-05-19T11:49:42.740Z,330
2019-05-19T11:50:46.697Z,305
2019-05-19T11:51:42.747Z,290
2019-05-19T11:52:42.743Z,280
2019-05-19T11:53:42.741Z,280
2019-05-19T11:54:42.750Z,295
2019-05-19T11:55:42.741Z,300
2019-05-19T11:56:42.506Z,295
2019-05-19T11:57:42.753Z,295
2019-05-19T11:58:42.576Z,300
2019-05-19T11:59:42.745Z,305
2019-05-19T12:00:42.767Z,300
2019-05-19T12:01:42.767Z,320
2019-05-19T12:02:42.749Z,340
2019-05-19T12:03:42.830Z,345
2019-05-19T12:04:42.995Z,330
2019-05-19T12:05:42.810Z,325
2019-05-19T12:06:49.224Z,310
2019-05-19T12:07:42.771Z,300
2019-05-19T12:08:42.769Z,290
2019-05-19T12:09:42.776Z,280
2019-05-19T12:10:42.776Z,285
2019-05-19T12:11:42.584Z,270
2019-05-19T12:12:42.832Z,265
2019-05-19T12:13:44.569Z,255
2019-05-19T12:14:42.527Z,250
2019-05-19T12:15:42.765Z,245
2019-05-19T12:16:42.794Z,245
2019-05-19T12:17:42.526Z,245
2019-05-19T12:18:42.817Z,245
2019-05-19T12:19:42.783Z,250
2019-05-19T12:20:42.831Z,260
2019-05-19T12:21:42.784Z,270
2019-05-19T12:22:42.786Z,280
2019-05-19T12:23:42.775Z,300
2019-05-19T12:24:42.921Z,315
2019-05-19T12:25:42.928Z,330
2019-05-19T12:26:44.452Z,350
2019-05-19T12:27:42.784Z,350
2019-05-19T12:28:42.791Z,345
2019-05-19T12:29:42.554Z,350
2019-05-19T12:30:42.792Z,370
2019-05-19T12:31:42.794Z,380
2019-05-19T12:32:42.767Z,390
2019-05-19T12:33:57.931Z,370
2019-05-19T12:34:42.792Z,365
2019-05-19T12:35:42.896Z,345
2019-05-19T12:36:42.796Z,355
2019-05-19T12:37:42.791Z,360
2019-05-19T12:38:42.815Z,355
2019-05-19T12:39:42.566Z,345
2019-05-19T12:40:42.800Z,335
2019-05-19T12:41:42.630Z,330
2019-05-19T12:42:42.806Z,325
2019-05-19T12:43:42.807Z,335
2019-05-19T12:44:42.832Z,350
2019-05-19T12:45:42.967Z,370
2019-05-19T12:46:42.816Z,415
2019-05-19T12:47:42.862Z,455
2019-05-19T12:48:42.890Z,470
2019-05-19T12:49:42.826Z,455
2019-05-19T12:50:42.827Z,445
2019-05-19T12:51:42.843Z,450
2019-05-19T12:52:42.817Z,420
2019-05-19T12:53:42.829Z,380
2019-05-19T12:54:42.949Z,350
2019-05-19T12:55:42.825Z,325
2019-05-19T12:56:49.487Z,310
2019-05-19T12:57:42.842Z,310
2019-05-19T12:58:42.882Z,305
2019-05-19T12:59:42.839Z,295
2019-05-19T13:00:42.859Z,295
2019-05-19T13:01:42.860Z,300
2019-05-19T13:02:45.050Z,300
2019-05-19T13:03:42.844Z,285
2019-05-19T13:04:42.929Z,270
2019-05-19T13:05:42.847Z,260
2019-05-19T13:06:42.857Z,270
2019-05-19T13:07:42.865Z,275
2019-05-19T13:08:42.874Z,285
2019-05-19T13:09:42.869Z,300
2019-05-19T13:10:42.618Z,305
2019-05-19T13:11:42.867Z,310
2019-05-19T13:12:42.874Z,315
2019-05-19T13:13:42.959Z,320
2019-05-19T13:14:42.875Z,330
2019-05-19T13:15:42.880Z,345
2019-05-19T13:16:42.873Z,355
2019-05-19T13:17:42.876Z,375
2019-05-19T13:18:42.880Z,385
2019-05-19T13:19:42.973Z,385
2019-05-19T13:20:42.886Z,390
2019-05-19T13:21:43.152Z,395
2019-05-19T13:22:42.769Z,405
2019-05-19T13:23:42.979Z,415
2019-05-19T13:24:42.908Z,435
2019-05-19T13:25:42.955Z,455
2019-05-19T13:26:57.860Z,460
2019-05-19T13:27:42.898Z,450
2019-05-19T13:28:42.920Z,415
2019-05-19T13:29:42.901Z,365
2019-05-19T13:30:46.067Z,330
2019-05-19T13:31:42.909Z,315
2019-05-19T13:32:42.433Z,315
2019-05-19T13:33:42.953Z,320
2019-05-19T13:34:42.945Z,330
2019-05-19T13:35:42.916Z,325
2019-05-19T13:36:45.179Z,325
2019-05-19T13:37:42.919Z,325
2019-05-19T13:38:42.934Z,325
2019-05-19T13:39:42.938Z,330
2019-05-19T13:40:42.963Z,340
2019-05-19T13:41:42.933Z,340
2019-05-19T13:42:42.949Z,340
2019-05-19T13:43:42.962Z,340
2019-05-19T13:44:42.958Z,325
2019-05-19T13:45:42.943Z,330
2019-05-19T13:46:42.961Z,340
2019-05-19T13:47:42.965Z,350
2019-05-19T13:48:42.966Z,355
2019-05-19T13:49:43.064Z,360
2019-05-19T13:50:42.738Z,360
2019-05-19T13:51:42.981Z,365
2019-05-19T13:52:43.194Z,380
2019-05-19T13:53:42.990Z,395
2019-05-19T13:54:43.134Z,400
2019-05-19T13:55:42.974Z,395
2019-05-19T13:56:43.025Z,385
2019-05-19T13:57:42.975Z,370
2019-05-19T13:58:43.039Z,355
2019-05-19T13:59:42.980Z,350
2019-05-19T14:00:42.981Z,350